N6PTL Weather Reports


Display with metric or nautical units.
time (UTC)temp
F
wind
direction
speed
MPH
gust
MPH
rain 1hr
in
rain 24hr
in
rain mn
in
humidity
%
barometer
mb
20240621140019 53 142 0.0 0.0 0.00 0.64 0.00 89 1012.1
20240621134522 54 141 0.0 0.0 0.00 0.64 0.00 89 1012.1
20240621133018 53 142 0.0 0.0 0.00 0.64 0.00 89 1012.1
20240621131517 53 142 0.0 0.0 0.00 0.64 0.00 89 1011.9
20240621130019 53 141 0.0 0.0 0.00 0.64 0.00 89 1011.7
20240621124513 53 142 0.0 0.0 0.00 0.64 0.00 89 1011.5
20240621123011 52 142 0.0 0.0 0.00 0.64 0.00 89 1011.4
20240621121511 52 142 0.0 0.0 0.00 0.64 0.00 89 1011.4
20240621120010 52 142 0.0 0.0 0.00 0.64 0.00 89 1011.3
20240621114509 52 142 0.0 0.0 0.00 0.64 0.00 89 1011.1
20240621113009 52 141 0.0 0.0 0.00 0.64 0.00 89 1011.2
20240621111508 52 142 0.0 0.0 0.00 0.64 0.00 89 1011.0
20240621110011 52 141 0.0 0.0 0.00 0.64 0.00 89 1010.9
20240621104506 52 142 0.0 0.0 0.00 0.64 0.00 89 1010.8
20240621103015 52 142 0.0 0.0 0.00 0.64 0.00 89 1010.8
20240621101508 52 141 0.0 0.0 0.00 0.64 0.00 89 1010.8
20240621100010 52 142 0.0 0.0 0.00 0.64 0.00 89 1010.8
20240621094510 52 142 0.0 0.0 0.00 0.64 0.00 89 1010.8
20240621093004 52 148 0.0 0.0 0.00 0.64 0.00 89 1010.9
20240621091510 52 148 0.0 0.0 0.00 0.64 0.00 89 1010.6
20240621090004 52 148 0.0 0.0 0.00 0.64 0.00 89 1010.8
20240621084503 51 148 0.0 2.0 0.00 0.64 0.00 89 1010.9
20240621083101 51 73 0.0 2.0 0.00 0.64 0.00 88 1010.7
20240621081637 51 31 2.0 6.0 0.00 0.64 0.00 88 1011.0
20240621080100 52 324 0.0 0.0 0.00 0.64 0.00 88 1010.5
20240621074555 52 324 0.0 0.0 0.00 0.64 0.00 88 1010.9
20240621073053 52 324 0.0 0.0 0.00 0.64 0.00 88 1011.0
20240621071551 52 359 0.0 1.0 0.00 0.64 0.00 88 1011.0
20240621070048 51 324 0.0 1.0 0.00 0.64 0.00 88 1011.4
20240621064600 51 324 0.0 3.0 0.00 0.64 0.00 88 1011.7
20240621063045 52 324 0.0 0.0 0.00 0.64 0.00 88 1011.4
20240621061555 52 324 0.0 0.0 0.01 0.64 0.00 88 1011.0
20240621060039 52 324 0.0 0.0 0.03 0.64 0.00 87 1010.8
20240621054536 52 324 0.0 0.0 0.03 0.64 0.64 87 1010.7
20240621053053 52 324 0.0 0.0 0.04 0.64 0.64 87 1010.3
20240621051533 52 324 0.0 0.0 0.03 0.63 0.63 87 1010.0
20240621050032 52 324 0.0 0.0 0.02 0.61 0.61 87 1009.9
20240621044540 52 324 0.0 0.0 0.03 0.61 0.61 86 1009.8
20240621043028 53 324 0.0 0.0 0.03 0.60 0.60 86 1009.9
20240621041529 53 324 0.0 3.0 0.03 0.60 0.60 85 1009.9
20240621040034 54 247 0.0 0.0 0.03 0.59 0.59 84 1009.7
20240621034540 54 247 0.0 5.0 0.02 0.57 0.57 82 1009.7
20240621033024 54 273 0.0 0.0 0.02 0.56 0.56 82 1009.3
20240621031541 55 291 0.0 7.0 0.02 0.56 0.56 78 1008.8
20240621030025 55 265 0.0 4.0 0.01 0.56 0.56 78 1008.8
20240621024524 54 287 3.0 5.0 0.01 0.56 0.56 80 1008.6
20240621023023 54 68 0.0 0.0 0.00 0.55 0.55 84 1008.9
20240621021522 54 68 2.0 6.0 0.00 0.55 0.55 83 1008.2
20240621020021 54 292 2.0 7.0 0.00 0.55 0.55 80 1008.6
20240621014525 54 258 0.0 8.0 0.02 0.55 0.55 82 1008.0
20240621013021 53 297 4.0 5.0 0.11 0.55 0.55 85 1008.5
20240621011527 53 305 0.0 6.0 0.16 0.55 0.55 86 1008.6
20240621010019 53 299 2.0 5.0 0.23 0.55 0.55 86 1008.8
20240621004518 53 31 5.0 12.0 0.27 0.53 0.53 85 1008.8
20240621003019 54 71 1.0 4.0 0.30 0.44 0.44 86 1009.3
20240621001513 54 100 0.0 3.0 0.28 0.39 0.39 85 1008.4
20240621000008 55 339 2.0 4.0 0.22 0.32 0.32 82 1007.8
20240620234505 57 270 0.0 15.0 0.16 0.26 0.26 77 1006.3
20240620233000 60 291 4.0 10.0 0.08 0.13 0.13 73 1004.4
20240620231615 61 287 1.0 7.0 0.08 0.10 0.10 72 1003.7
20240620230101 60 281 4.0 7.0 0.10 0.10 0.10 76 1003.5
20240620224606 60 228 0.0 2.0 0.10 0.10 0.10 79 1003.6
20240620223056 62 227 2.0 6.0 0.05 0.05 0.05 75 1003.9
20240620221603 64 297 1.0 5.0 0.02 0.02 0.02 67 1002.7
20240620220050 69 301 0.0 2.0 0.00 0.00 0.00 51 1002.9
20240620214555 70 244 0.0 3.0 0.00 0.00 0.00 51 1002.7
20240620213051 70 244 4.0 7.0 0.00 0.00 0.00 48 1003.1
20240620211546 71 164 0.0 0.0 0.00 0.00 0.00 44 1003.4
20240620210046 72 220 1.0 3.0 0.00 0.00 0.00 45 1003.4
20240620204551 72 52 3.0 5.0 0.00 0.00 0.00 41 1003.9
20240620203041 72 169 0.0 1.0 0.00 0.00 0.00 43 1004.3
20240620201543 72 238 2.0 5.0 0.00 0.00 0.00 42 1004.5
20240620200037 72 250 1.0 4.0 0.00 0.00 0.00 44 1004.7
20240620194608 74 177 0.0 3.0 0.00 0.00 0.00 42 1004.9
20240620193033 74 170 0.0 7.0 0.00 0.00 0.00 40 1005.4
20240620191530 73 195 1.0 5.0 0.00 0.00 0.00 45 1005.8
20240620190029 72 71 1.0 4.0 0.00 0.00 0.00 48 1006.0
20240620184526 71 212 2.0 10.0 0.00 0.00 0.00 48 1006.3
20240620183045 70 109 1.0 5.0 0.00 0.00 0.00 55 1006.7
20240620181524 69 77 1.0 5.0 0.00 0.00 0.00 60 1006.9
20240620180029 69 105 2.0 5.0 0.00 0.00 0.00 54 1007.0
20240620174522 69 162 1.0 4.0 0.00 0.00 0.00 53 1007.1
20240620173037 69 113 1.0 4.0 0.00 0.00 0.00 51 1007.0
20240620171521 70 109 1.0 5.0 0.00 0.00 0.00 52 1007.3
20240620170022 69 98 2.0 6.0 0.00 0.00 0.00 55 1007.4
20240620164524 67 221 3.0 9.0 0.00 0.00 0.00 57 1007.7
20240620163023 66 210 0.0 4.0 0.00 0.00 0.00 59 1007.7
20240620161512 65 213 2.0 7.0 0.00 0.00 0.00 59 1007.7
20240620160020 65 173 2.0 7.0 0.00 0.00 0.00 59 1007.8
20240620154519 65 215 3.0 7.0 0.00 0.00 0.00 59 1007.7
20240620153012 65 201 3.0 5.0 0.00 0.00 0.00 59 1007.7
20240620151510 64 191 2.0 7.0 0.00 0.00 0.00 59 1007.7
20240620150009 64 166 6.0 13.0 0.00 0.00 0.00 60 1007.6
20240620144510 63 144 3.0 11.0 0.00 0.00 0.00 62 1007.4
20240620143013 63 202 0.0 9.0 0.00 0.00 0.00 64 1007.3
20240620141507 62 222 3.0 13.0 0.00 0.00 0.00 64 1007.2